createdAt,value
2023-03-17T00:01:12.484Z,59.27
2023-03-17T00:06:19.089Z,58.55
2023-03-17T00:11:22.051Z,66.37
2023-03-17T00:16:27.248Z,65.44
2023-03-17T00:21:32.111Z,60.79
2023-03-17T00:26:34.608Z,57.46
2023-03-17T00:31:39.649Z,61.27
2023-03-17T00:36:43.935Z,68.67
2023-03-17T00:46:48.449Z,61.88
2023-03-17T00:51:51.333Z,58.97
2023-03-17T00:56:54.141Z,59.21
2023-03-17T01:01:57.420Z,66.75
2023-03-17T01:07:00.062Z,65.40
2023-03-17T01:12:02.560Z,61.73
2023-03-17T01:17:13.657Z,59.76
2023-03-17T01:22:16.132Z,57.92
2023-03-17T01:27:19.203Z,61.60
2023-03-17T01:32:22.207Z,69.32
2023-03-17T01:37:25.659Z,66.03
2023-03-17T01:42:28.883Z,62.35
2023-03-17T01:47:32.075Z,60.46
2023-03-17T01:52:38.423Z,57.78
2023-03-17T01:57:44.906Z,61.56
2023-03-17T02:02:50.116Z,68.73
2023-03-17T02:07:53.615Z,64.81
2023-03-17T02:13:00.139Z,61.33
2023-03-17T02:18:03.667Z,59.44
2023-03-17T02:23:07.441Z,58.20
2023-03-17T02:28:16.461Z,64.96
2023-03-17T02:33:19.128Z,66.97
2023-03-17T02:38:22.134Z,62.41
2023-03-17T02:43:24.663Z,60.28
2023-03-17T02:48:27.268Z,58.38
2023-03-17T02:53:29.792Z,59.01
2023-03-17T02:58:32.351Z,66.12
2023-03-17T03:03:35.065Z,65.15
2023-03-17T03:08:37.722Z,61.42
2023-03-17T03:13:40.506Z,59.29
2023-03-17T03:18:43.026Z,58.63
2023-03-17T03:23:46.026Z,62.13
2023-03-17T03:28:48.812Z,69.25
2023-03-17T03:33:51.578Z,65.91
2023-03-17T03:38:54.159Z,62.07
2023-03-17T03:43:56.859Z,58.74
2023-03-17T03:48:59.433Z,58.14
2023-03-17T03:54:01.932Z,60.27
2023-03-17T03:59:04.517Z,69.47
2023-03-17T04:04:07.302Z,67.18
2023-03-17T04:09:09.796Z,62.11
2023-03-17T04:14:12.668Z,58.25
2023-03-17T04:19:15.261Z,58.97
2023-03-17T04:24:17.807Z,66.65
2023-03-17T04:29:20.463Z,64.10
2023-03-17T04:34:23.394Z,59.83
2023-03-17T04:39:25.934Z,57.64
2023-03-17T04:44:28.485Z,62.35
2023-03-17T04:49:31.295Z,68.54
2023-03-17T04:54:33.834Z,63.05
2023-03-17T04:59:36.701Z,58.16
2023-03-17T05:04:39.267Z,59.82
2023-03-17T05:09:41.951Z,67.31
2023-03-17T05:14:44.473Z,64.36
2023-03-17T05:19:47.116Z,59.67
2023-03-17T05:24:49.666Z,56.94
2023-03-17T05:29:52.502Z,60.97
2023-03-17T05:34:55.062Z,68.09
2023-03-17T05:39:57.718Z,64.88
2023-03-17T05:45:00.258Z,59.19
2023-03-17T05:50:04.728Z,57.03
2023-03-17T05:55:08.422Z,60.89
2023-03-17T06:00:13.454Z,67.97
2023-03-17T06:05:16.160Z,64.05
2023-03-17T06:10:18.730Z,58.03
2023-03-17T06:15:21.368Z,58.20
2023-03-17T06:20:24.083Z,61.26
2023-03-17T06:25:26.931Z,68.41
2023-03-17T06:30:30.732Z,63.53
2023-03-17T06:35:34.419Z,58.04
2023-03-17T06:40:37.388Z,58.53
2023-03-17T06:45:39.974Z,60.70
2023-03-17T06:50:42.627Z,68.23
2023-03-17T06:55:46.024Z,64.33
2023-03-17T07:00:48.905Z,57.57
2023-03-17T07:05:52.030Z,58.11
2023-03-17T07:10:57.212Z,61.20
2023-03-17T07:16:00.669Z,67.97
2023-03-17T07:21:03.620Z,62.87
2023-03-17T07:26:06.229Z,57.31
2023-03-17T07:31:11.519Z,59.48
2023-03-17T07:36:15.655Z,65.59
2023-03-17T07:41:18.204Z,62.47
2023-03-17T07:46:21.392Z,57.35
2023-03-17T07:51:27.662Z,58.48
2023-03-17T07:56:31.253Z,60.42
2023-03-17T08:01:34.147Z,65.34
2023-03-17T08:06:37.292Z,60.50
2023-03-17T08:11:39.790Z,55.90
2023-03-17T08:16:42.794Z,58.31
2023-03-17T08:21:45.609Z,60.28
2023-03-17T08:26:49.233Z,65.56
2023-03-17T08:31:51.900Z,62.14
2023-03-17T08:36:54.642Z,55.96
2023-03-17T08:41:57.413Z,56.29
2023-03-17T08:46:59.965Z,58.79
2023-03-17T08:52:03.466Z,61.02
2023-03-17T08:57:06.096Z,54.15
2023-03-17T09:02:11.875Z,54.68
2023-03-17T09:07:15.072Z,56.20
2023-03-17T09:12:17.654Z,57.02
2023-03-17T09:17:20.275Z,59.34
2023-03-17T09:22:23.190Z,59.54
2023-03-17T09:27:25.780Z,59.51
2023-03-17T09:32:28.359Z,59.27
2023-03-17T09:37:31.081Z,62.92
2023-03-17T09:42:38.557Z,54.18
2023-03-17T09:48:11.987Z,53.12
2023-03-17T09:53:33.948Z,52.76
2023-03-17T09:58:39.205Z,54.43
2023-03-17T10:03:42.716Z,56.66
2023-03-17T10:09:16.996Z,56.77
2023-03-17T10:14:35.217Z,55.89
2023-03-17T10:19:40.640Z,59.40
2023-03-17T10:24:48.854Z,57.71
2023-03-17T10:29:52.852Z,60.84
2023-03-17T10:34:56.522Z,50.44
2023-03-17T10:40:00.951Z,50.64
2023-03-17T10:45:27.775Z,53.25
2023-03-17T10:50:33.579Z,53.73
2023-03-17T10:55:42.843Z,53.61
2023-03-17T11:01:08.222Z,52.71
2023-03-17T11:06:13.636Z,57.16
2023-03-17T11:11:24.702Z,53.51
2023-03-17T11:16:27.360Z,54.13
2023-03-17T11:21:33.908Z,52.21
2023-03-17T11:26:57.503Z,52.68
2023-03-17T11:32:19.708Z,53.94
2023-03-17T11:37:41.491Z,50.53
2023-03-17T11:42:58.567Z,53.11
2023-03-17T11:48:27.672Z,51.59
2023-03-17T11:53:55.604Z,50.92
2023-03-17T11:59:06.570Z,51.15
2023-03-17T12:04:34.294Z,49.60
2023-03-17T12:09:45.594Z,49.78
2023-03-17T12:14:52.278Z,51.02
2023-03-17T12:20:18.216Z,51.43
2023-03-17T12:25:29.426Z,50.42
2023-03-17T12:30:48.361Z,47.14
2023-03-17T12:35:52.054Z,49.79
2023-03-17T12:41:08.630Z,50.75
2023-03-17T12:46:28.835Z,50.30
2023-03-17T12:51:40.731Z,48.20
2023-03-17T12:56:46.411Z,49.68
2023-03-17T13:02:06.042Z,47.48
2023-03-17T13:07:14.985Z,49.06
2023-03-17T13:12:36.120Z,49.48
2023-03-17T13:17:38.686Z,47.07
2023-03-17T13:23:02.116Z,47.70
2023-03-17T13:28:10.929Z,48.75
2023-03-17T13:33:15.149Z,45.75
2023-03-17T13:38:48.577Z,47.30
2023-03-17T13:44:20.512Z,49.47
2023-03-17T13:49:30.286Z,48.84
2023-03-17T13:54:40.596Z,47.89
2023-03-17T14:00:01.595Z,48.11
2023-03-17T14:05:07.621Z,48.37
2023-03-17T14:10:19.522Z,48.37
2023-03-17T14:15:35.021Z,49.35
2023-03-17T14:20:37.629Z,50.76
2023-03-17T14:25:40.259Z,46.93
2023-03-17T14:30:53.130Z,46.16
2023-03-17T14:36:01.834Z,46.27
2023-03-17T14:41:18.261Z,46.65
2023-03-17T14:46:26.477Z,45.52
2023-03-17T14:51:33.210Z,44.23
2023-03-17T14:56:39.879Z,44.72
2023-03-17T15:01:45.522Z,43.36
2023-03-17T15:06:54.968Z,42.02
2023-03-17T15:12:23.129Z,42.51
2023-03-17T15:17:33.352Z,42.88
2023-03-17T15:22:35.828Z,44.41
2023-03-17T15:27:38.333Z,43.85
2023-03-17T15:32:41.272Z,45.51
2023-03-17T15:37:43.943Z,45.23
2023-03-17T15:42:46.798Z,46.14
2023-03-17T15:47:49.404Z,47.27
2023-03-17T15:52:57.976Z,47.85
2023-03-17T15:58:00.629Z,48.81
2023-03-17T16:03:28.884Z,49.68
2023-03-17T16:08:31.432Z,50.17
2023-03-17T16:13:34.001Z,50.38
2023-03-17T16:18:38.175Z,50.69
2023-03-17T16:23:41.040Z,51.53
2023-03-17T16:28:45.508Z,52.56
2023-03-17T16:33:49.085Z,53.73
2023-03-17T16:38:52.025Z,54.44
2023-03-17T16:44:01.122Z,55.29
2023-03-17T16:49:04.964Z,55.45
2023-03-17T16:54:07.765Z,56.17
2023-03-17T16:59:18.427Z,56.53
2023-03-17T17:04:20.936Z,56.63
2023-03-17T17:09:23.445Z,56.36
2023-03-17T17:14:25.955Z,56.92
2023-03-17T17:19:28.586Z,57.81
2023-03-17T17:24:31.088Z,58.20
2023-03-17T17:29:33.640Z,58.74
2023-03-17T17:34:36.150Z,59.53
2023-03-17T17:39:38.720Z,59.14
2023-03-17T17:44:41.241Z,59.89
2023-03-17T17:49:43.850Z,59.82
2023-03-17T17:54:46.377Z,59.81
2023-03-17T17:59:48.922Z,60.03
2023-03-17T18:04:51.645Z,60.41
2023-03-17T18:09:54.334Z,60.71
2023-03-17T18:14:56.970Z,60.55
2023-03-17T18:19:59.508Z,61.00
2023-03-17T18:25:02.032Z,60.48
2023-03-17T18:30:07.467Z,60.60
2023-03-17T18:35:14.816Z,61.00
2023-03-17T18:40:19.140Z,61.67
2023-03-17T18:45:21.920Z,61.81
2023-03-17T18:50:24.488Z,67.22
2023-03-17T18:55:27.008Z,62.78
2023-03-17T19:00:30.022Z,53.16
2023-03-17T19:05:37.538Z,53.33
2023-03-17T19:10:42.818Z,54.54
2023-03-17T19:15:46.031Z,56.47
2023-03-17T19:20:48.637Z,57.83
2023-03-17T19:25:51.169Z,58.50
2023-03-17T19:30:55.868Z,59.70
2023-03-17T19:35:59.987Z,59.96
2023-03-17T19:41:03.486Z,60.81
2023-03-17T19:46:06.177Z,61.09
2023-03-17T19:51:09.363Z,61.00
2023-03-17T19:56:11.978Z,60.91
2023-03-17T20:01:14.692Z,61.26
2023-03-17T20:06:17.315Z,61.52
2023-03-17T20:11:19.833Z,61.64
2023-03-17T20:16:22.739Z,61.80
2023-03-17T20:21:25.497Z,62.09
2023-03-17T20:26:28.724Z,67.85
2023-03-17T20:31:31.991Z,63.95
2023-03-17T20:36:34.668Z,53.82
2023-03-17T20:41:37.162Z,53.12
2023-03-17T20:46:39.892Z,54.58
2023-03-17T20:51:43.705Z,55.72
2023-03-17T20:56:49.404Z,57.31
2023-03-17T21:01:52.048Z,58.37
2023-03-17T21:06:54.611Z,58.92
2023-03-17T21:11:57.124Z,59.62
2023-03-17T21:17:01.290Z,60.56
2023-03-17T21:22:04.518Z,61.25
2023-03-17T21:27:11.063Z,61.25
2023-03-17T21:32:13.646Z,61.48
2023-03-17T21:37:18.254Z,61.94
2023-03-17T21:42:20.739Z,62.18
2023-03-17T21:47:23.223Z,66.85
2023-03-17T21:52:25.987Z,62.05
2023-03-17T21:57:29.512Z,52.85
2023-03-17T22:02:32.016Z,54.04
2023-03-17T22:07:34.531Z,55.71
2023-03-17T22:12:38.254Z,57.09
2023-03-17T22:17:40.788Z,57.77
2023-03-17T22:22:43.317Z,58.77
2023-03-17T22:27:45.933Z,59.75
2023-03-17T22:32:48.890Z,60.84
2023-03-17T22:37:51.399Z,60.54
2023-03-17T22:42:56.497Z,60.77
2023-03-17T22:47:58.975Z,60.64
2023-03-17T22:53:01.688Z,61.05
2023-03-17T22:58:04.246Z,61.11
2023-03-17T23:03:07.144Z,61.26
2023-03-17T23:08:09.620Z,61.64
2023-03-17T23:13:12.605Z,61.72
2023-03-17T23:18:15.497Z,61.96
2023-03-17T23:23:17.979Z,61.79
2023-03-17T23:28:20.575Z,61.89
2023-03-17T23:33:24.038Z,62.20
2023-03-17T23:38:26.634Z,65.92
2023-03-17T23:43:29.170Z,62.06
2023-03-17T23:48:32.689Z,53.54
2023-03-17T23:53:35.492Z,53.87
2023-03-17T23:58:38.141Z,56.54
